Time;durP1;ratioP1;P1;durP2;ratioP2;P2;SDS_P1;SDS_P2;PMS_P1;PMS_P2;Temp;Humidity;BMP_temperature;BMP_pressure;BME280_temperature;BME280_humidity;BME280_pressure;Samples;Min_cycle;Max_cycle;Signal;HPM_P1;HPM_P2
2022/09/08 00:00:21;;;;;;;31.48;28.23;;;;;;;14.33;100.00;100960.94;2088416;28;39889;-70
2022/09/08 00:01:23;;;;;;;32.70;29.40;;;;;;;14.33;100.00;100958.25;2088473;28;36028;-70
2022/09/08 00:02:24;;;;;;;34.97;31.27;;;;;;;14.29;100.00;100952.13;2088156;28;39880;-69
2022/09/08 00:03:28;;;;;;;32.90;29.42;;;;;;;14.28;100.00;100946.78;2088752;28;30616;-70
2022/09/08 00:04:33;;;;;;;32.58;29.05;;;;;;;14.27;100.00;100951.28;2079580;28;40630;-71
2022/09/08 00:05:44;;;;;;;33.58;29.92;;;;;;;14.25;100.00;100945.09;2080524;28;34160;-70
2022/09/08 00:06:46;;;;;;;35.83;32.08;;;;;;;14.23;100.00;100946.97;2088741;28;36234;-71
2022/09/08 00:07:51;;;;;;;39.25;34.30;;;;;;;14.22;100.00;100938.94;2088417;28;33527;-69
2022/09/08 00:08:55;;;;;;;40.55;34.63;;;;;;;14.22;100.00;100938.94;2088480;28;32592;-71
2022/09/08 00:09:57;;;;;;;38.25;33.80;;;;;;;14.21;100.00;100934.47;2088675;28;26877;-70
2022/09/08 00:11:05;;;;;;;37.55;33.47;;;;;;;14.21;100.00;100937.19;2088452;28;39511;-71
2022/09/08 00:12:11;;;;;;;42.47;35.10;;;;;;;14.23;100.00;100929.91;2079430;28;40332;-71
2022/09/08 00:13:12;;;;;;;43.83;36.92;;;;;;;14.25;100.00;100928.06;2080926;28;30495;-70
2022/09/08 00:14:14;;;;;;;46.95;38.53;;;;;;;14.27;100.00;100928.88;2088007;28;34873;-71
2022/09/08 00:15:16;;;;;;;36.70;32.78;;;;;;;14.26;100.00;100927.97;2088552;28;34664;-71
2022/09/08 00:16:18;;;;;;;43.20;36.33;;;;;;;14.24;100.00;100923.59;2088690;28;31156;-71
2022/09/08 00:17:22;;;;;;;41.28;35.72;;;;;;;14.22;100.00;100922.78;2088380;28;33798;-71
2022/09/08 00:18:24;;;;;;;42.58;36.03;;;;;;;14.22;100.00;100930.88;2088525;28;31364;-71
2022/09/08 00:19:26;;;;;;;40.33;35.60;;;;;;;14.20;100.00;100924.66;2080071;28;31174;-71
2022/09/08 00:20:28;;;;;;;36.15;31.15;;;;;;;14.20;100.00;100932.75;2080141;28;32587;-70
2022/09/08 00:21:30;;;;;;;38.38;32.88;;;;;;;14.16;100.00;100925.69;2088106;28;32867;-70
2022/09/08 00:22:32;;;;;;;29.10;26.00;;;;;;;14.18;100.00;100931.94;2079726;28;31602;-70
2022/09/08 00:23:37;;;;;;;34.25;30.55;;;;;;;14.13;100.00;100934.78;2079397;28;38207;-70
2022/09/08 00:24:40;;;;;;;32.20;28.73;;;;;;;14.09;100.00;100933.16;2088509;28;33137;-70
2022/09/08 00:25:42;;;;;;;39.10;34.85;;;;;;;14.04;100.00;100929.75;2088210;28;30218;-71
2022/09/08 00:26:44;;;;;;;34.53;30.90;;;;;;;14.01;100.00;100930.72;2087738;28;31597;-71
2022/09/08 00:27:46;;;;;;;34.80;31.10;;;;;;;13.98;100.00;100930.88;2089196;28;20034;-70
2022/09/08 00:28:48;;;;;;;36.85;32.83;;;;;;;13.96;100.00;100924.63;2089150;28;20044;-70
2022/09/08 00:29:50;;;;;;;34.88;30.77;;;;;;;13.94;100.00;100930.09;2088389;28;32812;-71
2022/09/08 00:30:54;;;;;;;37.38;33.35;;;;;;;13.93;100.00;100927.47;2088761;28;33934;-70
2022/09/08 00:31:56;;;;;;;33.15;29.20;;;;;;;13.92;100.00;100914.94;2088179;28;36686;-69
2022/09/08 00:33:01;;;;;;;36.33;32.35;;;;;;;13.90;100.00;100916.81;2088452;28;31516;-70
2022/09/08 00:34:03;;;;;;;35.97;31.75;;;;;;;13.90;100.00;100917.66;2088150;28;30095;-70
2022/09/08 00:35:07;;;;;;;40.58;34.00;;;;;;;13.90;100.00;100919.50;2088238;28;29622;-71
2022/09/08 00:36:17;;;;;;;42.20;34.78;;;;;;;13.91;100.00;100913.19;2079595;28;32186;-70
2022/09/08 00:37:21;;;;;;;43.88;38.33;;;;;;;13.98;100.00;100917.41;2081127;28;36177;-71
2022/09/08 00:38:23;;;;;;;44.10;36.85;;;;;;;13.98;100.00;100914.72;2088182;28;30794;-70
2022/09/08 00:39:25;;;;;;;41.08;34.47;;;;;;;13.98;100.00;100913.81;2088476;28;33101;-71
2022/09/08 00:40:29;;;;;;;34.45;30.63;;;;;;;13.97;100.00;100912.94;2088374;28;31188;-71
2022/09/08 00:41:31;;;;;;;36.45;32.47;;;;;;;13.94;100.00;100905.88;2089818;28;20049;-71
2022/09/08 00:43:05;;;;;;;41.13;34.05;;;;;;;13.93;100.00;100908.63;2081249;28;20064;-74
2022/09/08 00:44:38;;;;;;;34.35;29.38;;;;;;;13.90;100.00;100904.22;2080093;28;27731;-74
2022/09/08 00:45:47;;;;;;;35.55;30.45;;;;;;;13.87;100.00;100898.06;2081006;28;20038;-74
2022/09/08 00:46:51;;;;;;;32.85;29.35;;;;;;;13.86;100.00;100899.03;2079985;28;36053;-74
2022/09/08 00:48:03;;;;;;;38.70;33.20;;;;;;;13.84;100.00;100896.38;2080955;28;20151;-72
2022/09/08 00:49:22;;;;;;;40.45;34.97;;;;;;;13.83;100.00;100896.44;2079566;28;32176;-72
2022/09/08 00:50:28;;;;;;;34.55;30.38;;;;;;;13.84;100.00;100900.91;2078842;28;46375;-72
2022/09/08 00:51:30;;;;;;;35.35;30.75;;;;;;;13.82;100.00;100898.25;2079360;28;31434;-72
2022/09/08 00:53:00;;;;;;;33.72;30.13;;;;;;;13.80;100.00;100896.53;2080162;28;32793;-72
2022/09/08 00:54:02;;;;;;;37.10;31.52;;;;;;;13.74;100.00;100893.13;2080297;28;20184;-72
2022/09/08 00:55:07;;;;;;;33.85;30.13;;;;;;;13.73;100.00;100891.41;2079509;28;39345;-72
2022/09/08 00:56:10;;;;;;;35.00;31.20;;;;;;;13.72;100.00;100895.00;2080384;28;20046;-72
2022/09/08 00:57:13;;;;;;;35.72;31.48;;;;;;;13.70;100.00;100886.13;2078847;28;35239;-72
2022/09/08 00:58:15;;;;;;;38.17;33.45;;;;;;;13.70;100.00;100886.13;2079689;28;28696;-72
2022/09/08 00:59:20;;;;;;;39.92;34.53;;;;;;;13.69;100.00;100888.84;2079164;28;36339;-72
2022/09/08 01:00:22;;;;;;;35.63;30.48;;;;;;;13.69;100.00;100883.47;2079592;28;29358;-72
2022/09/08 01:01:24;;;;;;;39.10;32.90;;;;;;;13.68;100.00;100884.44;2078964;28;37520;-72
2022/09/08 01:02:26;;;;;;;32.20;28.25;;;;;;;13.66;100.00;100887.19;2071385;28;33914;-71
2022/09/08 01:03:28;;;;;;;35.30;31.42;;;;;;;13.66;100.00;100889.00;2071049;28;35864;-72
2022/09/08 01:04:30;;;;;;;30.27;27.13;;;;;;;13.66;100.00;100884.50;2079540;28;29535;-71
2022/09/08 01:05:50;;;;;;;33.20;29.65;;;;;;;13.65;100.00;100882.72;2080077;28;39183;-72
2022/09/08 01:13:29;;;;;;;44.50;35.05;;;;;;;13.54;100.00;100871.47;2082086;28;32505;-72
2022/09/08 01:14:48;;;;;;;43.88;35.80;;;;;;;13.60;100.00;100881.13;2071143;28;36954;-72
2022/09/08 01:15:50;;;;;;;49.08;38.78;;;;;;;13.61;100.00;100869.44;2073446;28;35620;-72
2022/09/08 01:16:52;;;;;;;42.63;35.85;;;;;;;13.62;100.00;100880.16;2079351;28;32109;-72
2022/09/08 01:17:55;;;;;;;45.45;37.00;;;;;;;13.64;100.00;100872.00;2079342;28;40027;-72
2022/09/08 01:18:57;;;;;;;42.63;35.35;;;;;;;13.65;100.00;100877.34;2079975;28;36316;-72
2022/09/08 01:20:03;;;;;;;41.95;34.92;;;;;;;13.63;100.00;100868.44;2079746;28;32316;-72
2022/09/08 01:21:29;;;;;;;35.35;30.98;;;;;;;13.61;100.00;100866.75;2079879;28;34672;-72
2022/09/08 01:22:55;;;;;;;38.90;32.95;;;;;;;13.59;100.00;100869.50;2071393;28;32938;-72
2022/09/08 01:24:13;;;;;;;41.35;33.88;;;;;;;13.58;100.00;100878.50;2076370;28;36697;-72
2022/09/08 01:26:15;;;;;;;46.22;37.92;;;;;;;13.60;100.00;100868.56;2079959;28;31366;-72
2022/09/08 01:27:30;;;;;;;50.75;40.20;;;;;;;13.69;100.00;100862.84;2054258;28;34302;-72
2022/09/08 01:28:57;;;;;;;37.13;31.67;;;;;;;13.65;100.00;100868.41;2054654;28;29969;-72
2022/09/08 01:30:10;;;;;;;38.08;33.05;;;;;;;13.59;100.00;100874.88;2053975;28;39839;-73
2022/09/08 01:31:14;;;;;;;39.55;32.63;;;;;;;13.59;100.00;100880.25;2054573;28;31135;-73
2022/09/08 01:32:17;;;;;;;43.20;36.15;;;;;;;13.60;100.00;100876.63;2048478;28;37063;-71
2022/09/08 01:33:19;;;;;;;42.00;35.63;;;;;;;13.59;100.00;100874.00;2072370;28;20047;-72
2022/09/08 01:34:21;;;;;;;36.60;32.70;;;;;;;13.57;100.00;100874.06;2080384;28;33907;-72
2022/09/08 01:35:35;;;;;;;36.05;32.10;;;;;;;13.51;100.00;100875.16;2071315;28;30892;-72
2022/09/08 01:36:36;;;;;;;36.47;32.17;;;;;;;13.49;100.00;100873.44;2072968;28;37391;-72
2022/09/08 01:37:38;;;;;;;45.80;36.53;;;;;;;13.47;100.00;100862.75;2079821;28;34456;-72
2022/09/08 01:38:43;;;;;;;43.83;35.95;;;;;;;13.46;100.00;100862.78;2080496;28;20046;-72
2022/09/08 01:39:47;;;;;;;56.80;42.40;;;;;;;13.52;100.00;100857.22;2070718;28;35662;-72
2022/09/08 01:40:50;;;;;;;62.70;45.97;;;;;;;13.59;100.00;100858.75;2070372;28;32100;-72
2022/09/08 01:41:51;;;;;;;64.72;47.17;;;;;;;13.61;100.00;100853.31;2079305;28;36411;-71
2022/09/08 01:42:54;;;;;;;66.35;47.92;;;;;;;13.69;100.00;100853.88;2079358;28;39057;-71
2022/09/08 01:43:55;;;;;;;61.67;45.55;;;;;;;13.69;100.00;100841.34;2082182;28;27107;-72
2022/09/08 01:44:57;;;;;;;54.13;42.60;;;;;;;13.67;100.00;100843.19;2079128;28;27405;-72
2022/09/08 01:45:59;;;;;;;60.58;44.78;;;;;;;13.69;100.00;100838.63;2078839;28;36040;-72
2022/09/08 01:47:00;;;;;;;60.90;46.40;;;;;;;13.70;100.00;100828.75;2079131;28;32039;-72
2022/09/08 01:48:06;;;;;;;55.55;42.50;;;;;;;13.71;100.00;100834.06;2071175;28;20047;-72
2022/09/08 01:49:10;;;;;;;61.17;45.80;;;;;;;13.71;100.00;100835.88;2071489;28;29607;-72
2022/09/08 01:50:12;;;;;;;48.17;38.75;;;;;;;13.72;100.00;100832.25;2079959;28;32758;-72
2022/09/08 01:51:14;;;;;;;76.88;53.58;;;;;;;13.80;100.00;100834.66;2079388;28;38490;-72
2022/09/08 01:52:17;;;;;;;77.15;53.50;;;;;;;13.85;100.00;100833.53;2079865;28;31389;-72
2022/09/08 01:53:19;;;;;;;84.43;56.22;;;;;;;13.88;100.00;100833.41;2078642;28;30418;-72
2022/09/08 01:54:21;;;;;;;97.47;61.00;;;;;;;13.97;100.00;100831.31;2079184;28;31547;-72
2022/09/08 01:55:23;;;;;;;88.07;57.45;;;;;;;13.98;100.00;100822.28;2080147;28;20045;-71
2022/09/08 01:56:25;;;;;;;87.63;57.50;;;;;;;14.02;100.00;100821.25;2079810;28;39835;-71
2022/09/08 01:57:27;;;;;;;89.30;61.15;;;;;;;14.08;100.00;100824.56;2079283;28;36112;-71
2022/09/08 01:58:28;;;;;;;100.93;66.35;;;;;;;14.15;100.00;100819.81;2080125;28;20898;-71
2022/09/08 01:59:30;;;;;;;109.97;67.07;;;;;;;14.27;100.00;100818.47;2079778;28;31230;-71
2022/09/08 02:00:32;;;;;;;104.10;66.95;;;;;;;14.25;100.00;100820.34;2080643;28;20203;-71
2022/09/08 02:01:33;;;;;;;99.93;65.53;;;;;;;14.25;100.00;100815.81;2080131;28;30524;-71
2022/09/08 02:02:38;;;;;;;115.85;73.40;;;;;;;14.41;100.00;100816.09;2079098;28;31488;-71
2022/09/08 02:03:40;;;;;;;125.30;75.47;;;;;;;14.44;100.00;100821.31;2079342;28;35880;-72
2022/09/08 02:04:43;;;;;;;122.80;76.82;;;;;;;14.49;100.00;100823.84;2079937;28;20052;-71
2022/09/08 02:05:45;;;;;;;124.45;76.93;;;;;;;14.49;100.00;100821.16;2079243;28;38470;-71
2022/09/08 02:06:47;;;;;;;118.70;76.80;;;;;;;14.52;100.00;100823.72;2070912;28;29350;-71
2022/09/08 02:07:49;;;;;;;112.18;71.13;;;;;;;14.51;100.00;100814.75;2071065;28;24834;-71
2022/09/08 02:08:55;;;;;;;116.13;73.60;;;;;;;14.54;100.00;100821.84;2079806;28;20046;-71
2022/09/08 02:09:57;;;;;;;109.63;70.28;;;;;;;14.55;100.00;100818.19;2079283;28;38805;-71
2022/09/08 02:11:00;;;;;;;109.90;72.60;;;;;;;14.54;100.00;100813.75;2079520;28;34053;-71
2022/09/08 02:12:04;;;;;;;109.07;71.28;;;;;;;14.58;100.00;100811.84;2079140;28;30491;-71
2022/09/08 02:13:07;;;;;;;114.03;72.38;;;;;;;14.62;100.00;100818.84;2079537;28;35428;-69
2022/09/08 02:14:13;;;;;;;119.25;76.32;;;;;;;14.67;100.00;100806.06;2080509;28;37120;-71
2022/09/08 02:15:15;;;;;;;118.45;76.85;;;;;;;14.68;100.00;100810.53;2078732;28;28595;-70
2022/09/08 02:16:16;;;;;;;127.07;80.88;;;;;;;14.76;100.00;100816.44;2077792;28;37055;-71
2022/09/08 02:17:18;;;;;;;126.88;80.85;;;;;;;14.80;100.00;100815.38;2081322;28;32542;-70
2022/09/08 02:18:22;;;;;;;120.65;80.28;;;;;;;14.79;100.00;100810.94;2079786;28;37483;-71
2022/09/08 02:19:24;;;;;;;117.47;75.95;;;;;;;14.79;100.00;100813.63;2079475;28;20038;-70
2022/09/08 02:20:26;;;;;;;112.30;74.82;;;;;;;14.79;100.00;100813.63;2078864;28;35084;-70
2022/09/08 02:21:28;;;;;;;118.88;75.97;;;;;;;14.78;100.00;100811.88;2079407;28;37705;-70
2022/09/08 02:22:32;;;;;;;106.32;69.15;;;;;;;14.78;100.00;100814.56;2079171;28;37892;-70
2022/09/08 02:23:36;;;;;;;113.75;76.43;;;;;;;14.81;100.00;100814.44;2079303;28;37101;-70
2022/09/08 02:24:37;;;;;;;101.25;69.38;;;;;;;14.79;100.00;100812.78;2079088;28;40413;-70
2022/09/08 02:25:39;;;;;;;114.57;75.25;;;;;;;14.81;100.00;100803.66;2079573;28;34481;-70
2022/09/08 02:26:41;;;;;;;107.47;71.82;;;;;;;14.82;100.00;100801.84;2079949;28;20046;-70
2022/09/08 02:27:42;;;;;;;104.00;69.55;;;;;;;14.80;100.00;100803.72;2079390;28;34219;-70
2022/09/08 02:28:48;;;;;;;101.90;69.57;;;;;;;14.83;100.00;100803.59;2079307;28;35934;-70
2022/09/08 02:29:50;;;;;;;102.25;69.85;;;;;;;14.82;100.00;100804.53;2079879;28;20037;-70
2022/09/08 02:30:56;;;;;;;93.82;65.45;;;;;;;14.83;100.00;100806.31;2079572;28;29729;-70
2022/09/08 02:31:58;;;;;;;110.95;77.50;;;;;;;14.88;100.00;100805.16;2070732;28;35961;-70
2022/09/08 02:33:00;;;;;;;114.80;76.38;;;;;;;14.86;100.00;100807.03;2071642;28;36390;-70
2022/09/08 02:34:02;;;;;;;109.82;74.35;;;;;;;14.87;100.00;100789.03;2079373;28;37421;-70
2022/09/08 02:35:05;;;;;;;102.30;71.15;;;;;;;14.89;100.00;100797.94;2079398;28;20063;-70
2022/09/08 02:36:09;;;;;;;103.68;69.50;;;;;;;14.88;100.00;100798.91;2079998;28;20042;-70
2022/09/08 02:37:10;;;;;;;107.53;73.13;;;;;;;14.88;100.00;100797.06;2079271;28;32353;-69
2022/09/08 02:38:12;;;;;;;98.97;71.68;;;;;;;14.90;100.00;100802.41;2078872;28;29444;-69
2022/09/08 02:39:20;;;;;;;100.15;71.00;;;;;;;14.92;100.00;100807.72;2078618;28;32540;-69
2022/09/08 02:40:21;;;;;;;91.28;67.10;;;;;;;14.89;100.00;100806.03;2079417;28;36924;-69
2022/09/08 02:41:26;;;;;;;85.78;61.78;;;;;;;14.86;100.00;100801.66;2079451;28;34777;-70
2022/09/08 02:42:28;;;;;;;88.55;63.83;;;;;;;14.85;100.00;100804.41;2079687;28;20120;-69
2022/09/08 02:43:30;;;;;;;76.32;57.95;;;;;;;14.81;100.00;100795.56;2079811;28;20170;-69
2022/09/08 02:44:32;;;;;;;86.47;64.07;;;;;;;14.78;100.00;100798.41;2079527;28;37771;-70
2022/09/08 02:45:39;;;;;;;78.88;59.28;;;;;;;14.76;100.00;100802.13;2079387;28;31100;-70
2022/09/08 02:46:42;;;;;;;89.70;64.28;;;;;;;14.82;100.00;100805.44;2079753;28;35084;-70
2022/09/08 02:47:43;;;;;;;98.50;72.13;;;;;;;14.83;100.00;100804.47;2080863;28;34600;-70
2022/09/08 02:48:45;;;;;;;93.57;66.97;;;;;;;14.85;100.00;100799.88;2079751;28;20049;-70
2022/09/08 02:49:49;;;;;;;98.78;70.30;;;;;;;14.91;100.00;100800.56;2078747;28;38918;-70
2022/09/08 02:50:51;;;;;;;90.63;66.30;;;;;;;14.85;100.00;100805.28;2079057;28;34978;-70
2022/09/08 02:51:53;;;;;;;86.78;64.90;;;;;;;14.90;100.00;100802.41;2078522;28;20061;-70
2022/09/08 02:52:54;;;;;;;94.72;68.20;;;;;;;14.89;100.00;100806.91;2078779;28;20046;-70
2022/09/08 02:53:59;;;;;;;93.20;68.60;;;;;;;14.91;100.00;100808.66;2079623;28;20045;-70
2022/09/08 02:55:01;;;;;;;91.22;70.28;;;;;;;14.93;100.00;100806.75;2079538;28;35531;-70
2022/09/08 02:56:03;;;;;;;92.13;69.93;;;;;;;14.91;100.00;100803.25;2078558;28;32551;-70
2022/09/08 02:57:05;;;;;;;88.25;66.07;;;;;;;14.95;100.00;100794.09;2078545;28;23338;-70
2022/09/08 02:58:09;;;;;;;80.28;60.55;;;;;;;14.88;100.00;100791.69;2079291;28;34268;-70
2022/09/08 02:59:12;;;;;;;71.40;58.20;;;;;;;14.84;100.00;100790.06;2079964;28;20045;-70
2022/09/08 03:00:15;;;;;;;64.93;53.90;;;;;;;14.81;100.00;100790.19;2079199;28;25557;-70
2022/09/08 03:01:17;;;;;;;75.60;60.17;;;;;;;14.86;100.00;100790.88;2079169;28;33933;-70
2022/09/08 03:02:19;;;;;;;79.75;61.30;;;;;;;14.85;100.00;100799.88;2079219;28;20092;-70
2022/09/08 03:03:22;;;;;;;74.25;59.65;;;;;;;14.81;100.00;100800.09;2079761;28;32928;-70
2022/09/08 03:04:24;;;;;;;72.72;59.65;;;;;;;14.79;100.00;100797.47;2079091;28;32028;-70
2022/09/08 03:05:26;;;;;;;80.15;61.60;;;;;;;14.81;100.00;100797.41;2079893;28;20049;-70
2022/09/08 03:06:30;;;;;;;81.63;63.17;;;;;;;14.81;100.00;100798.28;2079166;28;34652;-70
2022/09/08 03:07:32;;;;;;;80.97;61.92;;;;;;;14.79;100.00;100794.78;2079102;28;38526;-70
2022/09/08 03:08:34;;;;;;;79.78;62.03;;;;;;;14.78;100.00;100802.91;2079649;28;20708;-70
2022/09/08 03:09:38;;;;;;;76.40;58.38;;;;;;;14.80;100.00;100803.72;2078960;28;38094;-69
2022/09/08 03:10:40;;;;;;;76.82;61.17;;;;;;;14.78;100.00;100801.09;2078932;28;36254;-70
2022/09/08 03:11:44;;;;;;;78.18;62.60;;;;;;;14.77;100.00;100802.06;2078983;28;39482;-71
2022/09/08 03:12:46;;;;;;;75.90;57.67;;;;;;;14.74;100.00;100802.19;2078175;28;34197;-70
2022/09/08 03:13:48;;;;;;;70.55;56.42;;;;;;;14.71;100.00;100799.59;2079442;28;20137;-70
2022/09/08 03:14:51;;;;;;;70.43;56.30;;;;;;;14.70;100.00;100795.16;2079320;28;40400;-71
2022/09/08 03:15:53;;;;;;;70.25;56.35;;;;;;;14.66;100.00;100801.59;2080958;28;32025;-70
2022/09/08 03:16:56;;;;;;;74.40;58.00;;;;;;;14.69;100.00;100796.97;2080667;28;28584;-71
2022/09/08 03:17:58;;;;;;;67.63;55.67;;;;;;;14.69;100.00;100793.41;2080382;28;42198;-71
2022/09/08 03:19:00;;;;;;;82.78;62.38;;;;;;;14.73;100.00;100784.22;2080557;28;28987;-71
2022/09/08 03:20:03;;;;;;;71.38;56.17;;;;;;;14.69;100.00;100782.63;2080725;28;30997;-71
2022/09/08 03:21:11;;;;;;;77.75;60.75;;;;;;;14.70;100.00;100785.25;2080329;28;29578;-71
2022/09/08 03:22:12;;;;;;;77.85;60.67;;;;;;;14.72;100.00;100787.88;2071994;28;36204;-71
2022/09/08 03:23:23;;;;;;;77.50;60.55;;;;;;;14.73;100.00;100784.22;2072253;28;34613;-71
2022/09/08 03:24:25;;;;;;;73.07;57.88;;;;;;;14.72;100.00;100777.09;2071423;28;36694;-71
2022/09/08 03:25:28;;;;;;;63.30;52.78;;;;;;;14.68;100.00;100786.28;2073611;28;35633;-71
2022/09/08 03:26:30;;;;;;;71.57;58.08;;;;;;;14.68;100.00;100780.88;2079735;28;33388;-71
2022/09/08 03:27:31;;;;;;;79.15;62.08;;;;;;;14.69;100.00;100778.09;2080381;28;35592;-71
2022/09/08 03:28:33;;;;;;;77.82;60.78;;;;;;;14.67;100.00;100771.03;2080543;28;38440;-71
2022/09/08 03:29:35;;;;;;;72.63;56.80;;;;;;;14.65;100.00;100778.31;2080226;28;33146;-71
2022/09/08 03:30:38;;;;;;;65.90;53.80;;;;;;;14.64;100.00;100771.16;2080806;28;29249;-71
2022/09/08 03:31:39;;;;;;;70.18;56.97;;;;;;;14.62;100.00;100776.59;2071466;28;34130;-72
2022/09/08 03:32:43;;;;;;;63.53;52.53;;;;;;;14.59;100.00;100768.69;2071883;28;35696;-72
2022/09/08 03:33:45;;;;;;;67.70;54.67;;;;;;;14.57;100.00;100767.84;2079839;28;20038;-71
2022/09/08 03:34:46;;;;;;;61.80;50.17;;;;;;;14.58;100.00;100768.75;2080921;28;35643;-71
2022/09/08 03:35:50;;;;;;;65.85;53.38;;;;;;;14.56;100.00;100763.38;2071715;28;30925;-71
2022/09/08 03:36:53;;;;;;;71.82;55.70;;;;;;;14.56;100.00;100763.38;2072381;28;32098;-72
2022/09/08 03:37:55;;;;;;;67.15;55.22;;;;;;;14.56;100.00;100762.50;2080191;28;32201;-71
2022/09/08 03:38:56;;;;;;;69.07;55.10;;;;;;;14.55;100.00;100758.06;2080962;28;29941;-71
2022/09/08 03:39:58;;;;;;;73.03;57.50;;;;;;;14.55;100.00;100756.22;2080244;28;36045;-72
2022/09/08 03:41:04;;;;;;;69.40;55.00;;;;;;;14.55;100.00;100758.91;2080233;28;35884;-71
2022/09/08 03:42:06;;;;;;;66.07;55.55;;;;;;;14.58;100.00;100753.44;2079894;28;32681;-71
2022/09/08 03:43:08;;;;;;;75.65;59.72;;;;;;;14.62;100.00;100754.19;2079942;28;38947;-72
2022/09/08 03:44:11;;;;;;;73.60;57.60;;;;;;;14.62;100.00;100754.19;2080299;28;20053;-72
2022/09/08 03:45:16;;;;;;;66.85;55.22;;;;;;;14.60;100.00;100753.38;2080008;28;34713;-71
2022/09/08 03:46:19;;;;;;;74.63;58.85;;;;;;;14.62;100.00;100751.50;2063708;28;32464;-71
2022/09/08 03:47:20;;;;;;;69.60;55.22;;;;;;;14.60;100.00;100748.00;2064217;28;37098;-72
2022/09/08 03:48:25;;;;;;;74.13;60.03;;;;;;;14.60;100.00;100745.28;2080947;28;33420;-71
2022/09/08 03:49:26;;;;;;;73.18;57.00;;;;;;;14.59;100.00;100754.31;2080690;28;31390;-71
2022/09/08 03:50:28;;;;;;;73.15;57.25;;;;;;;14.60;100.00;100750.69;2080241;28;37095;-72
2022/09/08 03:51:31;;;;;;;67.28;56.65;;;;;;;14.59;100.00;100746.22;2081260;28;20041;-71
2022/09/08 03:52:34;;;;;;;68.32;56.83;;;;;;;14.57;100.00;100754.38;2080773;28;20143;-72
2022/09/08 03:53:38;;;;;;;69.05;55.33;;;;;;;14.58;100.00;100741.78;2080227;28;38644;-71
2022/09/08 03:54:49;;;;;;;70.03;57.03;;;;;;;14.56;100.00;100744.50;2080136;28;33256;-72
2022/09/08 03:55:50;;;;;;;74.13;58.58;;;;;;;14.58;100.00;100744.50;2080686;28;33168;-71
2022/09/08 03:56:52;;;;;;;69.03;56.30;;;;;;;14.54;100.00;100746.41;2080467;28;32518;-72
2022/09/08 03:57:54;;;;;;;65.30;54.15;;;;;;;14.55;100.00;100747.28;2080490;28;31950;-71
2022/09/08 03:58:55;;;;;;;66.22;55.47;;;;;;;14.53;100.00;100744.63;2080305;28;32565;-71
2022/09/08 03:59:59;;;;;;;63.00;52.95;;;;;;;14.52;100.00;100742.91;2080460;28;36717;-71
2022/09/08 04:01:06;;;;;;;66.05;55.88;;;;;;;14.56;100.00;100749.03;2080135;28;34646;-71
2022/09/08 04:02:09;;;;;;;65.50;54.10;;;;;;;14.55;100.00;100747.28;2080684;28;34171;-71
2022/09/08 04:03:13;;;;;;;67.13;56.08;;;;;;;14.52;100.00;100751.00;2079999;28;32041;-72
2022/09/08 04:04:15;;;;;;;67.80;56.28;;;;;;;14.53;100.00;100744.63;2080320;28;32801;-71
2022/09/08 04:05:17;;;;;;;63.80;54.45;;;;;;;14.51;100.00;100749.22;2080397;28;39653;-71
2022/09/08 04:06:19;;;;;;;65.60;54.50;;;;;;;14.50;100.00;100751.03;2080421;28;32320;-71
2022/09/08 04:07:25;;;;;;;63.83;53.30;;;;;;;14.49;100.00;100757.38;2070958;28;36912;-71
2022/09/08 04:08:27;;;;;;;62.13;52.38;;;;;;;14.48;100.00;100752.03;2072278;28;27452;-71
2022/09/08 04:09:29;;;;;;;65.22;54.30;;;;;;;14.49;100.00;100748.41;2079771;28;34060;-71
2022/09/08 04:10:31;;;;;;;72.28;58.42;;;;;;;14.50;100.00;100751.03;2080741;28;42266;-71
2022/09/08 04:11:32;;;;;;;67.78;56.80;;;;;;;14.50;100.00;100748.34;2080250;28;34464;-71
2022/09/08 04:12:34;;;;;;;72.07;59.20;;;;;;;14.51;100.00;100752.78;2080335;28;20042;-70
2022/09/08 04:13:36;;;;;;;66.78;54.40;;;;;;;14.51;100.00;100747.41;2079874;28;38117;-71
2022/09/08 04:14:39;;;;;;;68.97;56.53;;;;;;;14.49;100.00;100743.91;2080584;28;34938;-70
2022/09/08 04:15:41;;;;;;;69.45;58.95;;;;;;;14.55;100.00;100744.56;2079774;28;34514;-70
2022/09/08 04:16:43;;;;;;;69.80;57.85;;;;;;;14.52;100.00;100743.78;2080377;28;35426;-70
2022/09/08 04:17:44;;;;;;;72.97;57.35;;;;;;;14.54;100.00;100740.16;2080780;28;20038;-70
2022/09/08 04:18:46;;;;;;;71.95;58.45;;;;;;;14.51;100.00;100743.84;2080232;28;37968;-70
2022/09/08 04:19:50;;;;;;;72.15;59.17;;;;;;;14.53;100.00;100741.94;2080090;28;37597;-71
2022/09/08 04:21:04;;;;;;;72.38;58.40;;;;;;;14.51;100.00;100736.63;2080375;28;35516;-70
2022/09/08 04:22:09;;;;;;;65.75;53.72;;;;;;;14.50;100.00;100739.41;2081081;28;20988;-70
2022/09/08 04:23:10;;;;;;;71.65;56.13;;;;;;;14.49;100.00;100741.19;2080226;28;31371;-70
2022/09/08 04:24:15;;;;;;;64.85;53.45;;;;;;;14.47;100.00;100743.09;2080530;28;35587;-70
2022/09/08 04:25:19;;;;;;;67.60;56.10;;;;;;;14.48;100.00;100744.84;2080032;28;33057;-70
2022/09/08 04:26:22;;;;;;;69.05;56.58;;;;;;;14.48;100.00;100735.88;2081025;28;20196;-70
2022/09/08 04:27:24;;;;;;;74.40;59.60;;;;;;;14.50;100.00;100742.97;2079830;28;38595;-70
2022/09/08 04:28:26;;;;;;;68.38;54.58;;;;;;;14.48;100.00;100735.88;2079882;28;39576;-70
2022/09/08 04:29:31;;;;;;;70.13;54.80;;;;;;;14.48;100.00;100739.47;2080897;28;20053;-70
2022/09/08 04:30:32;;;;;;;65.57;55.80;;;;;;;14.48;100.00;100731.38;2080110;28;38353;-70
2022/09/08 04:31:37;;;;;;;77.15;59.95;;;;;;;14.49;100.00;100727.72;2079853;28;33885;-70
2022/09/08 04:32:39;;;;;;;66.85;57.50;;;;;;;14.47;100.00;100728.75;2080477;28;33117;-70
2022/09/08 04:33:41;;;;;;;70.60;57.30;;;;;;;14.46;100.00;100725.19;2079805;28;34830;-71
2022/09/08 04:34:43;;;;;;;70.57;57.15;;;;;;;14.47;100.00;100729.63;2080291;28;31362;-70
2022/09/08 04:35:45;;;;;;;70.82;57.97;;;;;;;14.46;100.00;100730.56;2079873;28;36097;-70
2022/09/08 04:36:46;;;;;;;67.63;57.15;;;;;;;14.44;100.00;100724.34;2071503;28;38275;-70
2022/09/08 04:37:48;;;;;;;62.72;53.22;;;;;;;14.44;100.00;100729.75;2071780;28;33083;-70
2022/09/08 04:38:51;;;;;;;57.47;50.10;;;;;;;14.41;100.00;100724.50;2079625;28;41872;-70
2022/09/08 04:39:52;;;;;;;68.18;55.75;;;;;;;14.43;100.00;100722.63;2071379;28;29943;-70
2022/09/08 04:40:54;;;;;;;68.53;57.00;;;;;;;14.43;100.00;100722.63;2071311;28;33509;-70
2022/09/08 04:41:56;;;;;;;67.25;57.25;;;;;;;14.44;100.00;100729.75;2079378;28;35814;-70
2022/09/08 04:42:57;;;;;;;75.00;57.85;;;;;;;14.46;100.00;100719.81;2080097;28;34699;-71
2022/09/08 04:44:01;;;;;;;72.72;58.13;;;;;;;14.45;100.00;100726.13;2079857;28;39302;-70
2022/09/08 04:45:05;;;;;;;74.53;58.45;;;;;;;14.47;100.00;100724.22;2080178;28;30981;-70
2022/09/08 04:46:11;;;;;;;66.60;54.92;;;;;;;14.46;100.00;100722.50;2079760;28;32354;-70
2022/09/08 04:47:12;;;;;;;67.20;53.60;;;;;;;14.48;100.00;100725.09;2080370;28;36964;-70
2022/09/08 04:48:15;;;;;;;71.63;56.08;;;;;;;14.49;100.00;100733.13;2080503;28;20037;-71
2022/09/08 04:49:17;;;;;;;63.42;52.45;;;;;;;14.51;100.00;100725.84;2080097;28;36447;-70
2022/09/08 04:50:19;;;;;;;63.58;53.45;;;;;;;14.52;100.00;100722.22;2080087;28;29665;-71
2022/09/08 04:51:22;;;;;;;70.88;56.65;;;;;;;14.52;100.00;100722.22;2080436;28;20169;-71
2022/09/08 04:52:25;;;;;;;62.63;54.20;;;;;;;14.52;100.00;100721.34;2080146;28;37235;-70
2022/09/08 04:53:36;;;;;;;60.97;52.80;;;;;;;14.52;100.00;100718.66;2080130;28;30044;-71